createdAt,value
2018-12-14T00:00:55.718Z,616.8
2018-12-14T00:01:57.889Z,616.5
2018-12-14T00:03:00.055Z,616.5
2018-12-14T00:04:02.480Z,616.4
2018-12-14T00:05:04.912Z,617
2018-12-14T00:06:07.361Z,617
2018-12-14T00:07:09.791Z,616.6
2018-12-14T00:08:11.917Z,616.9
2018-12-14T00:09:13.818Z,617.3
2018-12-14T00:10:15.697Z,617.2
2018-12-14T00:11:18.130Z,617.1
2018-12-14T00:12:20.554Z,617.2
2018-12-14T00:13:22.423Z,617.2
2018-12-14T00:14:24.853Z,617
2018-12-14T00:15:27.275Z,617
2018-12-14T00:16:28.588Z,616.8
2018-12-14T00:17:30.761Z,617.2
2018-12-14T00:18:32.924Z,617.4
2018-12-14T00:19:35.352Z,616.9
2018-12-14T00:20:37.797Z,617.2
2018-12-14T00:21:40.230Z,617
2018-12-14T00:22:42.670Z,617.3
2018-12-14T00:23:45.101Z,617.2
2018-12-14T00:24:47.526Z,616.8
2018-12-14T00:25:49.682Z,617
2018-12-14T00:26:52.160Z,617.1
2018-12-14T00:27:54.583Z,616.7
2018-12-14T00:28:56.733Z,617.1
2018-12-14T00:29:59.159Z,617.1
2018-12-14T00:31:01.322Z,616.9
2018-12-14T00:32:03.743Z,616.7
2018-12-14T00:33:05.899Z,616.7
2018-12-14T00:34:08.337Z,617.2
2018-12-14T00:35:10.753Z,616.9
2018-12-14T00:36:12.912Z,616.8
2018-12-14T00:37:15.050Z,617.1
2018-12-14T00:38:17.193Z,617.1
2018-12-14T00:39:19.350Z,616.6
2018-12-14T00:40:21.783Z,616.6
2018-12-14T00:41:23.669Z,616.4
2018-12-14T00:42:25.540Z,616.3
2018-12-14T00:43:27.975Z,615.8
2018-12-14T00:44:30.402Z,615.8
2018-12-14T00:45:32.832Z,615.4
2018-12-14T00:46:34.963Z,615.5
2018-12-14T00:47:36.847Z,615.1
2018-12-14T00:48:39.269Z,615.6
2018-12-14T00:49:41.431Z,615.2
2018-12-14T00:50:43.872Z,616
2018-12-14T00:51:46.042Z,616.2
2018-12-14T00:52:48.192Z,615.8
2018-12-14T00:53:50.335Z,615.6
2018-12-14T00:54:52.753Z,615.5
2018-12-14T00:55:54.383Z,615.7
2018-12-14T00:56:56.538Z,615.1
2018-12-14T00:57:58.679Z,615.4
2018-12-14T00:59:01.161Z,615.2
2018-12-14T01:00:03.051Z,615.3
2018-12-14T01:01:05.473Z,615.1
2018-12-14T01:02:07.903Z,615
2018-12-14T01:03:10.339Z,615
2018-12-14T01:04:12.771Z,615
2018-12-14T01:05:14.916Z,615.2
2018-12-14T01:06:17.067Z,615
2018-12-14T01:07:19.498Z,615.4
2018-12-14T01:08:21.923Z,615
2018-12-14T01:09:24.068Z,615
2018-12-14T01:10:26.493Z,615.2
2018-12-14T01:11:28.916Z,615.1
2018-12-14T01:12:31.345Z,614.9
2018-12-14T01:13:33.771Z,614.8
2018-12-14T01:14:35.917Z,614.4
2018-12-14T01:15:38.349Z,614.6
2018-12-14T01:16:40.766Z,614.4
2018-12-14T01:17:42.667Z,614.3
2018-12-14T01:18:44.821Z,614.3
2018-12-14T01:19:47.264Z,614.3
2018-12-14T01:20:49.421Z,614
2018-12-14T01:21:51.584Z,614.1
2018-12-14T01:22:54.015Z,614.4
2018-12-14T01:23:56.187Z,614.2
2018-12-14T01:24:58.378Z,614.4
2018-12-14T01:26:00.810Z,614.3
2018-12-14T01:27:02.698Z,614.1
2018-12-14T01:28:04.830Z,614.1
2018-12-14T01:29:06.961Z,613.7
2018-12-14T01:30:09.378Z,614.3
2018-12-14T01:31:11.532Z,614.2
2018-12-14T01:32:13.952Z,613.9
2018-12-14T01:33:15.552Z,613.9
2018-12-14T01:34:17.973Z,613.9
2018-12-14T01:35:19.835Z,614.3
2018-12-14T01:36:22.257Z,613.7
2018-12-14T01:37:24.414Z,613.9
2018-12-14T01:38:26.844Z,613.7
2018-12-14T01:39:29.269Z,614
2018-12-14T01:40:31.407Z,613.9
2018-12-14T01:41:33.878Z,613.9
2018-12-14T01:42:36.301Z,614
2018-12-14T01:43:38.461Z,613.8
2018-12-14T01:44:40.892Z,613.8
2018-12-14T01:45:43.321Z,613.8
2018-12-14T01:46:45.492Z,613.5
2018-12-14T01:47:47.906Z,613.5
2018-12-14T01:48:50.329Z,613.4
2018-12-14T01:49:52.480Z,613.2
2018-12-14T01:50:54.642Z,613.6
2018-12-14T01:51:56.512Z,613.5
2018-12-14T01:52:58.669Z,613.6
2018-12-14T01:54:00.820Z,613.6
2018-12-14T01:55:03.364Z,613.6
2018-12-14T01:56:05.795Z,613.2
2018-12-14T01:57:08.228Z,613.5
2018-12-14T01:58:10.659Z,613.4
2018-12-14T01:59:13.096Z,613.3
2018-12-14T02:00:15.252Z,613.6
2018-12-14T02:01:17.391Z,613.6
2018-12-14T02:02:19.550Z,613.3
2018-12-14T02:03:21.713Z,613.5
2018-12-14T02:04:24.160Z,613.3
2018-12-14T02:05:26.584Z,613.5
2018-12-14T02:06:29.000Z,613.6
2018-12-14T02:07:31.434Z,613.6
2018-12-14T02:08:33.849Z,614.1
2018-12-14T02:09:36.280Z,614.2
2018-12-14T02:10:38.428Z,614.1
2018-12-14T02:11:40.593Z,613.9
2018-12-14T02:12:42.764Z,614.2
2018-12-14T02:13:44.896Z,614.4
2018-12-14T02:14:47.042Z,614.6
2018-12-14T02:15:49.460Z,614.4
2018-12-14T02:16:51.882Z,614.8
2018-12-14T02:17:54.312Z,614.7
2018-12-14T02:18:56.747Z,614.8
2018-12-14T02:19:59.175Z,614.4
2018-12-14T02:21:01.342Z,614.7
2018-12-14T02:22:03.548Z,614.7
2018-12-14T02:23:05.676Z,614.7
2018-12-14T02:24:07.830Z,614.6
2018-12-14T02:25:09.991Z,614.6
2018-12-14T02:26:12.152Z,614.6
2018-12-14T02:27:14.565Z,614.6
2018-12-14T02:28:16.731Z,615.1
2018-12-14T02:29:18.893Z,614.8
2018-12-14T02:30:21.052Z,614.9
2018-12-14T02:31:23.491Z,615.6
2018-12-14T02:32:25.912Z,615.2
2018-12-14T02:33:28.338Z,614.8
2018-12-14T02:34:30.762Z,615
2018-12-14T02:35:33.191Z,614.9
2018-12-14T02:36:35.342Z,615.2
2018-12-14T02:37:37.498Z,614.8
2018-12-14T02:38:39.651Z,614.9
2018-12-14T02:39:42.066Z,614.8
2018-12-14T02:40:44.499Z,614.9
2018-12-14T02:41:46.645Z,614.8
2018-12-14T02:42:48.794Z,614.8
2018-12-14T02:43:51.230Z,614.5
2018-12-14T02:44:53.388Z,614.5
2018-12-14T02:45:55.545Z,614.6
2018-12-14T02:46:57.699Z,615.1
2018-12-14T02:47:59.851Z,614.7
2018-12-14T02:49:02.271Z,614.7
2018-12-14T02:50:04.415Z,614.9
2018-12-14T02:51:06.830Z,615
2018-12-14T02:52:09.264Z,614.9
2018-12-14T02:53:11.695Z,615
2018-12-14T02:54:13.860Z,615.4
2018-12-14T02:55:16.012Z,614.8
2018-12-14T02:56:18.445Z,615.2
2018-12-14T02:57:20.876Z,615.3
2018-12-14T02:58:23.007Z,615
2018-12-14T02:59:25.426Z,615.4
2018-12-14T03:00:27.588Z,614.8
2018-12-14T03:01:29.998Z,614.8
2018-12-14T03:02:31.911Z,614.7
2018-12-14T03:03:34.083Z,614.5
2018-12-14T03:04:36.221Z,614.6
2018-12-14T03:05:38.380Z,614
2018-12-14T03:06:40.525Z,614.1
2018-12-14T03:07:42.676Z,614
2018-12-14T03:08:45.104Z,613.7
2018-12-14T03:09:47.259Z,614.2
2018-12-14T03:10:49.684Z,614.1
2018-12-14T03:11:52.106Z,614.4
2018-12-14T03:12:54.540Z,614.1
2018-12-14T03:13:56.959Z,614
2018-12-14T03:14:59.125Z,614
2018-12-14T03:16:03.573Z,614.4
2018-12-14T03:17:05.998Z,614.2
2018-12-14T03:18:08.245Z,614.5
2018-12-14T03:19:10.393Z,614.2
2018-12-14T03:20:12.275Z,614.1
2018-12-14T03:21:14.695Z,614
2018-12-14T03:22:16.579Z,613.8
2018-12-14T03:23:19.002Z,614.2
2018-12-14T03:24:21.439Z,614
2018-12-14T03:25:23.874Z,613.8
2018-12-14T03:26:26.299Z,613.7
2018-12-14T03:27:28.425Z,613.7
2018-12-14T03:28:30.852Z,613.8
2018-12-14T03:29:33.037Z,613.9
2018-12-14T03:30:35.197Z,613.6
2018-12-14T03:31:37.372Z,613.9
2018-12-14T03:32:39.805Z,613.6
2018-12-14T03:33:42.238Z,613.9
2018-12-14T03:34:44.395Z,613.4
2018-12-14T03:35:46.255Z,613.4
2018-12-14T03:36:48.673Z,613.4
2018-12-14T03:37:51.124Z,613.5
2018-12-14T03:38:53.287Z,613.3
2018-12-14T03:39:55.430Z,613.2
2018-12-14T03:40:57.573Z,612.9
2018-12-14T03:42:00.005Z,613.3
2018-12-14T03:43:02.421Z,612.8
2018-12-14T03:44:04.864Z,613.4
2018-12-14T03:45:07.026Z,612.9
2018-12-14T03:46:09.464Z,612.9
2018-12-14T03:47:11.890Z,613.5
2018-12-14T03:48:14.053Z,612.9
2018-12-14T03:49:16.217Z,613.1
2018-12-14T03:50:18.093Z,613
2018-12-14T03:51:20.243Z,613.1
2018-12-14T03:52:22.396Z,613
2018-12-14T03:53:24.551Z,612.9
2018-12-14T03:54:26.973Z,613.1
2018-12-14T03:55:29.403Z,612.8
2018-12-14T03:56:31.836Z,612.6
2018-12-14T03:57:34.261Z,612.7
2018-12-14T03:58:36.124Z,612.2
2018-12-14T03:59:38.255Z,612.2
2018-12-14T04:00:40.684Z,612
2018-12-14T04:01:42.850Z,612.1
2018-12-14T04:02:45.012Z,612.2
2018-12-14T04:03:47.431Z,612.1
2018-12-14T04:04:49.864Z,612
2018-12-14T04:05:52.284Z,612.4
2018-12-14T04:06:54.712Z,612.4
2018-12-14T04:07:57.148Z,612.5
2018-12-14T04:08:59.366Z,612.6
2018-12-14T04:10:01.789Z,612.4
2018-12-14T04:11:03.954Z,612.8
2018-12-14T04:12:06.390Z,612.6
2018-12-14T04:13:08.810Z,612.7
2018-12-14T04:14:11.317Z,612.2
2018-12-14T04:15:13.519Z,612.3
2018-12-14T04:16:15.660Z,612.3
2018-12-14T04:17:17.813Z,612.5
2018-12-14T04:18:20.235Z,612.3
2018-12-14T04:19:22.383Z,612.4
2018-12-14T04:20:24.267Z,612.2
2018-12-14T04:21:26.425Z,612.1
2018-12-14T04:22:28.854Z,612.1
2018-12-14T04:23:31.267Z,611.9
2018-12-14T04:24:33.694Z,611.4
2018-12-14T04:25:36.118Z,612
2018-12-14T04:26:38.543Z,611.3
2018-12-14T04:27:40.974Z,611.3
2018-12-14T04:28:43.125Z,611.3
2018-12-14T04:29:45.547Z,611
2018-12-14T04:30:47.720Z,611.6
2018-12-14T04:31:49.888Z,610.7
2018-12-14T04:32:52.312Z,610.4
2018-12-14T04:33:54.496Z,610.8
2018-12-14T04:34:56.921Z,610.6
2018-12-14T04:35:59.346Z,610.2
2018-12-14T04:37:01.773Z,610.3
2018-12-14T04:38:03.923Z,610.3
2018-12-14T04:39:06.054Z,610.5
2018-12-14T04:40:08.487Z,610.3
2018-12-14T04:41:10.923Z,610.4
2018-12-14T04:42:13.348Z,609.9
2018-12-14T04:43:15.543Z,610.3
2018-12-14T04:44:17.961Z,610.4
2018-12-14T04:45:20.132Z,610
2018-12-14T04:46:22.281Z,609.9
2018-12-14T04:47:24.714Z,610.1
2018-12-14T04:48:27.142Z,609.9
2018-12-14T04:49:29.574Z,610.2
2018-12-14T04:50:31.995Z,609.8
2018-12-14T04:51:34.435Z,609.5
2018-12-14T04:52:36.872Z,609.6
2018-12-14T04:53:39.306Z,609.6
2018-12-14T04:54:41.720Z,609.5
2018-12-14T04:55:43.885Z,609.7
2018-12-14T04:56:45.774Z,609.3
2018-12-14T04:57:47.633Z,609.4
2018-12-14T04:58:49.768Z,609.4
2018-12-14T04:59:51.644Z,609.1
2018-12-14T05:00:54.069Z,609.3
2018-12-14T05:01:56.216Z,609.2
2018-12-14T05:02:58.359Z,609.3
2018-12-14T05:04:00.778Z,609.2
2018-12-14T05:05:02.931Z,609.5
2018-12-14T05:06:05.355Z,609.2
2018-12-14T05:07:07.528Z,609.6
2018-12-14T05:08:09.953Z,609.3
2018-12-14T05:09:12.373Z,609
2018-12-14T05:10:14.532Z,608.8
2018-12-14T05:11:16.947Z,609
2018-12-14T05:12:19.376Z,609.1
2018-12-14T05:13:21.518Z,608.6
2018-12-14T05:14:23.711Z,608.2
2018-12-14T05:15:25.860Z,608.5
2018-12-14T05:16:28.034Z,608.3
2018-12-14T05:17:30.461Z,608.3
2018-12-14T05:18:32.876Z,608
2018-12-14T05:19:35.303Z,608.4
2018-12-14T05:20:37.445Z,608.3
2018-12-14T05:21:39.877Z,608.5
2018-12-14T05:22:42.285Z,608.4
2018-12-14T05:23:44.711Z,607.9
2018-12-14T05:24:46.568Z,608.1
2018-12-14T05:25:48.993Z,608.1
2018-12-14T05:26:51.248Z,607.8
2018-12-14T05:27:53.674Z,607.4
2018-12-14T05:28:55.843Z,607.5
2018-12-14T05:29:57.988Z,607.5
2018-12-14T05:31:00.146Z,606.9
2018-12-14T05:32:02.570Z,606.9
2018-12-14T05:33:05.016Z,606.8
2018-12-14T05:34:07.432Z,606.8
2018-12-14T05:35:09.853Z,606.5
2018-12-14T05:36:12.289Z,606.7
2018-12-14T05:37:14.729Z,607.1
2018-12-14T05:38:16.890Z,606.7
2018-12-14T05:39:19.043Z,606.4
2018-12-14T05:40:21.190Z,606.1
2018-12-14T05:41:23.617Z,606.3
2018-12-14T05:42:26.044Z,606.2
2018-12-14T05:43:28.474Z,606.2
2018-12-14T05:44:30.903Z,606.5
2018-12-14T05:45:33.323Z,606.3
2018-12-14T05:46:36.071Z,606.5
2018-12-14T05:47:38.513Z,606.2
2018-12-14T05:48:40.944Z,606.3
2018-12-14T05:49:43.376Z,606.1
2018-12-14T05:50:46.410Z,605.9
2018-12-14T05:51:48.845Z,605.8
2018-12-14T05:52:51.289Z,605.8
2018-12-14T05:53:53.723Z,605.8
2018-12-14T05:54:56.154Z,605.8
2018-12-14T05:55:58.305Z,605.7
2018-12-14T05:57:00.448Z,605.3
2018-12-14T05:58:02.874Z,604.8
2018-12-14T05:59:05.302Z,605.6
2018-12-14T06:00:07.168Z,605.2
2018-12-14T06:01:09.580Z,605.4
2018-12-14T06:02:11.730Z,605.3
2018-12-14T06:03:13.878Z,605.4
2018-12-14T06:04:16.023Z,605.5
2018-12-14T06:05:18.446Z,605.5
2018-12-14T06:06:20.862Z,605.5
2018-12-14T06:07:23.301Z,605.4
2018-12-14T06:08:25.465Z,606
2018-12-14T06:09:27.884Z,606
2018-12-14T06:10:30.312Z,605.9
2018-12-14T06:11:32.465Z,606.1
2018-12-14T06:12:34.614Z,606
2018-12-14T06:13:37.122Z,606
2018-12-14T06:14:39.712Z,605.7
2018-12-14T06:15:41.870Z,605.4
2018-12-14T06:16:44.029Z,605.1
2018-12-14T06:17:46.455Z,605.4
2018-12-14T06:18:48.891Z,605.1
2018-12-14T06:19:51.035Z,605.1
2018-12-14T06:20:53.475Z,605.1
2018-12-14T06:21:55.623Z,604.7
2018-12-14T06:22:57.781Z,604.3
2018-12-14T06:24:00.225Z,604.4
2018-12-14T06:25:02.115Z,604.4
2018-12-14T06:26:04.540Z,604.2
2018-12-14T06:27:06.964Z,604.3
2018-12-14T06:28:09.134Z,604.4
2018-12-14T06:29:11.564Z,604.5
2018-12-14T06:30:13.710Z,604.8
2018-12-14T06:31:16.135Z,604.4
2018-12-14T06:32:18.285Z,605
2018-12-14T06:33:20.444Z,604.6
2018-12-14T06:34:22.316Z,604.7
2018-12-14T06:35:24.744Z,604.3
2018-12-14T06:36:27.178Z,604.7
2018-12-14T06:37:29.329Z,604.5
2018-12-14T06:38:31.757Z,604.7
2018-12-14T06:39:33.918Z,604.4
2018-12-14T06:40:36.066Z,604.7
2018-12-14T06:41:38.521Z,604.2
2018-12-14T06:42:40.780Z,604.2
2018-12-14T06:43:42.746Z,604.5
2018-12-14T06:44:44.633Z,604.7
2018-12-14T06:45:46.793Z,604.7
2018-12-14T06:46:49.213Z,604.8
2018-12-14T06:47:51.356Z,604.7
2018-12-14T06:48:53.499Z,604.6
2018-12-14T06:49:55.648Z,604.4
2018-12-14T06:50:58.070Z,604.5
2018-12-14T06:51:59.943Z,605
2018-12-14T06:53:02.622Z,604.3
2018-12-14T06:54:04.772Z,604.6
2018-12-14T06:55:07.198Z,604.5
2018-12-14T06:56:09.624Z,604.6
2018-12-14T06:57:11.781Z,604.2
2018-12-14T06:58:14.203Z,604.2
2018-12-14T06:59:16.632Z,604.1
2018-12-14T07:00:19.062Z,604.2
2018-12-14T07:01:21.213Z,604.5
2018-12-14T07:02:23.640Z,603.9
2018-12-14T07:03:25.500Z,603.5
2018-12-14T07:04:27.669Z,604
2018-12-14T07:05:29.543Z,603.7
2018-12-14T07:06:31.978Z,603.6
2018-12-14T07:07:33.833Z,603.5
2018-12-14T07:08:36.276Z,603.4
2018-12-14T07:09:38.743Z,603.5
2018-12-14T07:10:41.170Z,603.5
2018-12-14T07:11:43.620Z,603.4
2018-12-14T07:12:45.787Z,603.3
2018-12-14T07:13:48.213Z,603.3
2018-12-14T07:14:50.350Z,603.4
2018-12-14T07:15:52.772Z,603.2
2018-12-14T07:16:55.204Z,603.1
2018-12-14T07:17:57.630Z,602.7
2018-12-14T07:18:59.778Z,602.8
2018-12-14T07:20:02.212Z,602.9
2018-12-14T07:21:04.633Z,602.8
2018-12-14T07:22:07.062Z,602.7
2018-12-14T07:23:09.235Z,602.4
2018-12-14T07:24:11.672Z,602.3
2018-12-14T07:25:13.824Z,602
2018-12-14T07:26:15.959Z,602.4
2018-12-14T07:27:18.389Z,602.6
2018-12-14T07:28:20.543Z,602.4
2018-12-14T07:29:22.972Z,602.3
2018-12-14T07:30:24.834Z,602.4
2018-12-14T07:31:27.261Z,602.5
2018-12-14T07:32:29.438Z,602.2
2018-12-14T07:33:31.864Z,602.6
2018-12-14T07:34:34.339Z,602.5
2018-12-14T07:36:42.222Z,602.6
2018-12-14T07:37:44.349Z,602.9
2018-12-14T07:39:51.592Z,602.3
2018-12-14T07:40:54.021Z,602
2018-12-14T07:41:56.449Z,601.7
2018-12-14T07:42:58.881Z,601.8
2018-12-14T07:44:01.309Z,601.7
2018-12-14T07:45:03.457Z,601.5
2018-12-14T07:46:05.885Z,601.8
2018-12-14T07:48:13.295Z,600.8
2018-12-14T07:49:15.724Z,600.9
2018-12-14T07:50:17.872Z,600.8
2018-12-14T07:51:20.302Z,600.2
2018-12-14T07:52:22.753Z,600.3
2018-12-14T07:53:25.169Z,600.6
2018-12-14T07:54:27.603Z,600
2018-12-14T07:55:30.022Z,600.3
2018-12-14T07:56:31.870Z,599.8
2018-12-14T07:57:34.030Z,599.9
2018-12-14T07:58:36.191Z,599.7
2018-12-14T07:59:38.090Z,599.7
2018-12-14T08:00:40.513Z,599.8
2018-12-14T08:01:42.939Z,599.9
2018-12-14T08:02:45.116Z,599.8
2018-12-14T08:03:47.277Z,599.8
2018-12-14T08:04:49.149Z,599.4
2018-12-14T08:05:51.579Z,599.7
2018-12-14T08:06:54.004Z,599.5
2018-12-14T08:07:56.166Z,599.7
2018-12-14T08:08:58.589Z,599.4
2018-12-14T08:10:01.023Z,599.3
2018-12-14T08:11:03.445Z,599.1
2018-12-14T08:12:05.310Z,599.1
2018-12-14T08:13:07.484Z,599.3
2018-12-14T08:14:09.632Z,599.3
2018-12-14T08:15:13.431Z,599.5
2018-12-14T08:16:15.600Z,599.5
2018-12-14T08:17:18.030Z,599.5
2018-12-14T08:18:20.174Z,599.5
2018-12-14T08:19:22.041Z,598.8
2018-12-14T08:20:24.469Z,599
2018-12-14T08:21:26.632Z,598.9
2018-12-14T08:22:29.061Z,599
2018-12-14T08:23:31.235Z,598.8
2018-12-14T08:24:33.658Z,598.8
2018-12-14T08:25:36.151Z,598.4
2018-12-14T08:26:38.579Z,598.4
2018-12-14T08:27:41.013Z,598.4
2018-12-14T08:28:43.433Z,598.6
2018-12-14T08:29:45.884Z,598.8
2018-12-14T08:30:48.313Z,598.6
2018-12-14T08:31:50.486Z,598.3
2018-12-14T08:32:52.932Z,598.1
2018-12-14T08:33:54.533Z,598.3
2018-12-14T08:34:56.953Z,598.7
2018-12-14T08:35:59.383Z,597.8
2018-12-14T08:37:01.816Z,597.7
2018-12-14T08:38:04.025Z,597.7
2018-12-14T08:39:06.159Z,597.6
2018-12-14T08:40:08.593Z,597.4
2018-12-14T08:41:11.006Z,597.3
2018-12-14T08:42:13.433Z,597.3
2018-12-14T08:43:15.563Z,597.7
2018-12-14T08:44:17.991Z,597.4
2018-12-14T08:45:20.427Z,597.5
2018-12-14T08:46:22.849Z,597.1
2018-12-14T08:47:26.143Z,597
2018-12-14T08:48:28.611Z,597.4
2018-12-14T08:49:30.762Z,596.8
2018-12-14T08:50:32.912Z,596.8
2018-12-14T08:51:35.354Z,596.9
2018-12-14T08:52:37.777Z,596.7
2018-12-14T08:53:39.943Z,596.5
2018-12-14T08:54:42.099Z,596.4
2018-12-14T08:55:44.259Z,596.2
2018-12-14T08:56:46.698Z,595.8
2018-12-14T08:57:49.120Z,596
2018-12-14T08:58:51.564Z,595.9
2018-12-14T08:59:53.722Z,596
2018-12-14T09:00:56.152Z,595.8
2018-12-14T09:01:58.592Z,595.7
2018-12-14T09:03:01.012Z,596.1
2018-12-14T09:04:03.152Z,596.1
2018-12-14T09:05:05.291Z,595.8
2018-12-14T09:06:07.722Z,595.7
2018-12-14T09:07:09.950Z,595.7
2018-12-14T09:08:12.370Z,595.5
2018-12-14T09:09:14.794Z,596
2018-12-14T09:10:16.942Z,595.8
2018-12-14T09:11:19.098Z,595.9
2018-12-14T09:12:21.252Z,595.4
2018-12-14T09:13:24.744Z,595.4
2018-12-14T09:14:27.194Z,595.4
2018-12-14T09:15:29.621Z,595.3
2018-12-14T09:16:31.754Z,594.9
2018-12-14T09:17:33.908Z,595.4
2018-12-14T09:18:36.046Z,595.4
2018-12-14T09:19:38.462Z,595.1
2018-12-14T09:20:40.894Z,595.3
2018-12-14T09:21:43.061Z,594.7
2018-12-14T09:22:45.215Z,594.5
2018-12-14T09:23:47.650Z,594.3
2018-12-14T09:24:50.077Z,594.5
2018-12-14T09:25:52.287Z,594.5
2018-12-14T09:26:54.715Z,594.2
2018-12-14T09:27:57.136Z,594
2018-12-14T09:28:59.299Z,593.6
2018-12-14T09:30:01.458Z,593.9
2018-12-14T09:31:03.880Z,593.5
2018-12-14T09:32:06.298Z,593.9
2018-12-14T09:33:08.174Z,593.2
2018-12-14T09:34:10.303Z,593.4
2018-12-14T09:35:12.460Z,593.4
2018-12-14T09:36:14.898Z,593.4
2018-12-14T09:37:17.324Z,593.3
2018-12-14T09:38:19.476Z,593.3
2018-12-14T09:39:21.704Z,593.3
2018-12-14T09:40:24.172Z,593.2
2018-12-14T09:41:26.612Z,593
2018-12-14T09:42:28.742Z,593.5
2018-12-14T09:43:31.190Z,593.8
2018-12-14T09:44:33.349Z,593.4
2018-12-14T09:45:35.503Z,593.4
2018-12-14T09:46:39.215Z,593.4
2018-12-14T09:47:41.645Z,593.5
2018-12-14T09:48:44.073Z,593.8
2018-12-14T09:49:46.515Z,593.3
2018-12-14T09:50:48.953Z,593.6
2018-12-14T09:51:51.390Z,593.5
2018-12-14T09:52:53.835Z,593.1
2018-12-14T09:53:56.280Z,593.3
2018-12-14T09:54:58.734Z,593.5
2018-12-14T09:56:00.624Z,593.4
2018-12-14T09:57:02.775Z,593.1
2018-12-14T09:58:04.940Z,593.1
2018-12-14T09:59:07.100Z,593.5
2018-12-14T10:00:09.544Z,593.5
2018-12-14T10:01:11.722Z,593.3
2018-12-14T10:02:14.156Z,593.1
2018-12-14T10:03:16.577Z,593.3
2018-12-14T10:04:18.452Z,592.9
2018-12-14T10:05:20.884Z,593.2
2018-12-14T10:06:23.041Z,593
2018-12-14T10:07:25.463Z,593.7
2018-12-14T10:08:27.602Z,593.4
2018-12-14T10:09:30.039Z,593.7
2018-12-14T10:10:32.206Z,593.5
2018-12-14T10:11:34.644Z,593.5
2018-12-14T10:12:36.816Z,593.2
2018-12-14T10:13:39.244Z,593.3
2018-12-14T10:14:41.670Z,593.3
2018-12-14T10:15:43.812Z,593.3
2018-12-14T10:16:46.238Z,593.5
2018-12-14T10:17:48.695Z,593.3
2018-12-14T10:18:50.833Z,593.4
2018-12-14T10:19:53.267Z,593.5
2018-12-14T10:20:55.696Z,593.4
2018-12-14T10:21:58.121Z,593.5
2018-12-14T10:23:00.562Z,593.4
2018-12-14T10:24:02.705Z,593.3
2018-12-14T10:25:04.310Z,593.7
2018-12-14T10:26:06.734Z,593.3
2018-12-14T10:27:09.170Z,593.4
2018-12-14T10:28:11.325Z,593.4
2018-12-14T10:29:13.757Z,593.2
2018-12-14T10:30:15.914Z,592.7
2018-12-14T10:31:17.794Z,593
2018-12-14T10:32:20.244Z,593.2
2018-12-14T10:33:22.682Z,593.1
2018-12-14T10:34:24.852Z,592.8
2018-12-14T10:35:27.725Z,592.9
2018-12-14T10:36:30.154Z,593
2018-12-14T10:37:32.578Z,593.3
2018-12-14T10:38:35.014Z,592.8
2018-12-14T10:39:37.455Z,593.3
2018-12-14T10:40:40.520Z,593.1
2018-12-14T10:41:42.690Z,593.4
2018-12-14T10:42:44.885Z,593
2018-12-14T10:43:46.756Z,593
2018-12-14T10:44:49.204Z,593.2
2018-12-14T10:45:52.751Z,593.2
2018-12-14T10:46:55.233Z,593.3
2018-12-14T10:47:57.679Z,593
2018-12-14T10:49:00.104Z,593
2018-12-14T10:50:01.971Z,593
2018-12-14T10:51:04.404Z,593
2018-12-14T10:52:06.833Z,593
2018-12-14T10:53:08.994Z,593.2
2018-12-14T10:54:11.459Z,593.3
2018-12-14T10:55:13.886Z,593
2018-12-14T10:56:16.310Z,592.9
2018-12-14T10:57:18.462Z,593.1
2018-12-14T10:58:22.392Z,593
2018-12-14T10:59:24.251Z,592.7
2018-12-14T11:00:26.403Z,592.7
2018-12-14T11:01:29.407Z,592.6
2018-12-14T11:02:31.564Z,592.4
2018-12-14T11:03:33.717Z,592.8
2018-12-14T11:04:36.156Z,592.4
2018-12-14T11:05:38.572Z,592.5
2018-12-14T11:06:40.734Z,592
2018-12-14T11:07:42.892Z,592.4
2018-12-14T11:08:45.315Z,592.1
2018-12-14T11:09:47.736Z,592
2018-12-14T11:10:50.172Z,592.2
2018-12-14T11:11:52.602Z,591.6
2018-12-14T11:12:55.028Z,592.1
2018-12-14T11:13:57.187Z,592
2018-12-14T11:14:59.324Z,592.1
2018-12-14T11:16:01.754Z,591.9
2018-12-14T11:17:04.180Z,592.2
2018-12-14T11:18:06.067Z,591.5
2018-12-14T11:19:08.499Z,591.7
2018-12-14T11:20:10.667Z,592.2
2018-12-14T11:21:13.101Z,591.9
2018-12-14T11:22:15.243Z,592.4
2018-12-14T11:23:17.663Z,592.2
2018-12-14T11:24:19.549Z,592.1
2018-12-14T11:25:21.972Z,592.2
2018-12-14T11:26:24.398Z,591.8
2018-12-14T11:27:26.526Z,592.1
2018-12-14T11:28:28.675Z,591.7
2018-12-14T11:29:31.999Z,591.4
2018-12-14T11:30:34.155Z,591.5
2018-12-14T11:31:36.582Z,591.6
2018-12-14T11:32:39.009Z,591.4
2018-12-14T11:33:41.146Z,591.6
2018-12-14T11:34:43.572Z,591.1
2018-12-14T11:35:45.994Z,591.7
2018-12-14T11:36:48.141Z,591.9
2018-12-14T11:37:50.567Z,591.8
2018-12-14T11:38:52.995Z,592.3
2018-12-14T11:39:55.170Z,591.9
2018-12-14T11:40:57.326Z,591.9
2018-12-14T11:41:59.754Z,592.2
2018-12-14T11:43:02.179Z,592.8
2018-12-14T11:44:04.336Z,592.6
2018-12-14T11:45:06.763Z,592.5
2018-12-14T11:46:08.912Z,592.1
2018-12-14T11:47:11.069Z,592.3
2018-12-14T11:48:13.224Z,592.5
2018-12-14T11:49:15.653Z,592.4
2018-12-14T11:50:18.080Z,592.3
2018-12-14T11:51:20.506Z,592.6
2018-12-14T11:52:22.952Z,592.7
2018-12-14T11:53:25.391Z,592.8
2018-12-14T11:54:27.814Z,592.5
2018-12-14T11:55:30.232Z,592.6
2018-12-14T11:56:32.658Z,592.6
2018-12-14T11:57:35.094Z,592.1
2018-12-14T11:58:37.252Z,592.4
2018-12-14T11:59:39.412Z,592.6
2018-12-14T12:00:41.578Z,592.1
2018-12-14T12:01:44.015Z,592.5
2018-12-14T12:02:46.453Z,592.5
2018-12-14T12:03:48.892Z,592.4
2018-12-14T12:04:51.322Z,592.5
2018-12-14T12:05:53.480Z,592.6
2018-12-14T12:06:55.923Z,592.9
2018-12-14T12:07:58.072Z,592.5
2018-12-14T12:09:00.221Z,592.4
2018-12-14T12:10:02.649Z,592.5
2018-12-14T12:11:05.060Z,592.2
2018-12-14T12:12:07.491Z,592.9
2018-12-14T12:13:09.924Z,592.4
2018-12-14T12:14:12.357Z,592.7
2018-12-14T12:15:14.245Z,592.9
2018-12-14T12:16:16.680Z,592.5
2018-12-14T12:17:18.881Z,592.9
2018-12-14T12:18:21.059Z,592.7
2018-12-14T12:19:23.224Z,592.8
2018-12-14T12:20:25.661Z,592.9
2018-12-14T12:21:28.094Z,592.8
2018-12-14T12:22:30.249Z,592.7
2018-12-14T12:23:32.680Z,592.4
2018-12-14T12:24:35.112Z,592.7
2018-12-14T12:25:37.539Z,592.4
2018-12-14T12:26:39.698Z,592.9
2018-12-14T12:27:41.850Z,592.7
2018-12-14T12:28:44.292Z,592.8
2018-12-14T12:29:46.466Z,592.5
2018-12-14T12:30:48.626Z,592.8
2018-12-14T12:31:50.788Z,593.1
2018-12-14T12:32:53.221Z,592.9
2018-12-14T12:33:55.658Z,593.1
2018-12-14T12:34:58.081Z,592.9
2018-12-14T12:36:00.505Z,593.1
2018-12-14T12:37:02.948Z,593.4
2018-12-14T12:38:04.844Z,593
2018-12-14T12:39:07.284Z,593.1
2018-12-14T12:40:10.992Z,593.1
2018-12-14T12:41:13.430Z,593.4
2018-12-14T12:42:15.882Z,593.4
2018-12-14T12:43:18.308Z,593
2018-12-14T12:44:20.487Z,593.3
2018-12-14T12:45:22.642Z,593.3
2018-12-14T12:46:25.064Z,593
2018-12-14T12:47:27.494Z,593
2018-12-14T12:48:29.923Z,593.7
2018-12-14T12:49:32.352Z,593.3
2018-12-14T12:50:34.534Z,593.4
2018-12-14T12:51:36.958Z,593.4
2018-12-14T12:52:39.436Z,593.3
2018-12-14T12:53:41.601Z,593.1
2018-12-14T12:54:44.040Z,593.3
2018-12-14T12:55:46.475Z,593.3
2018-12-14T12:56:48.900Z,593.2
2018-12-14T12:57:51.069Z,593.6
2018-12-14T12:58:54.959Z,593.3
2018-12-14T12:59:56.843Z,593.9
2018-12-14T13:00:59.281Z,593.6
2018-12-14T13:02:01.474Z,593.5
2018-12-14T13:03:03.903Z,593.6
2018-12-14T13:04:06.407Z,593.5
2018-12-14T13:05:08.832Z,593.7
2018-12-14T13:06:10.978Z,593.4
2018-12-14T13:07:13.422Z,593.4
2018-12-14T13:08:15.861Z,593.5
2018-12-14T13:09:18.284Z,593.4
2018-12-14T13:10:20.744Z,593.6
2018-12-14T13:11:23.197Z,593.7
2018-12-14T13:12:25.632Z,593.6
2018-12-14T13:13:28.058Z,593.2
2018-12-14T13:14:30.482Z,593.4
2018-12-14T13:15:32.356Z,593.8
2018-12-14T13:16:34.785Z,593.4
2018-12-14T13:17:36.905Z,593.3
2018-12-14T13:18:39.114Z,593.2
2018-12-14T13:19:41.262Z,593.4
2018-12-14T13:20:43.393Z,593.5
2018-12-14T13:21:45.552Z,593.5
2018-12-14T13:22:47.708Z,593.2
2018-12-14T13:23:49.858Z,593
2018-12-14T13:24:52.299Z,593.1
2018-12-14T13:25:54.738Z,592.7
2018-12-14T13:26:56.630Z,592.6
2018-12-14T13:27:59.061Z,592.4
2018-12-14T13:29:01.216Z,591.9
2018-12-14T13:30:03.645Z,592.1
2018-12-14T13:31:05.804Z,592.3